Time;durP1;ratioP1;P1;durP2;ratioP2;P2;SDS_P1;SDS_P2;PMS_P1;PMS_P2;Temp;Humidity;BMP_temperature;BMP_pressure;BME280_temperature;BME280_humidity;BME280_pressure;Samples;Min_cycle;Max_cycle;Signal;HPM_P1;HPM_P2
2022/10/21 00:01:39;;;;;;;11.03;9.07;;;19.10;90.90;;;-142.21;100.00;112049.66;5114959;28;20210;-70
2022/10/21 00:04:07;;;;;;;9.73;8.37;;;19.10;90.90;;;-142.21;100.00;112049.66;5115314;28;20199;-70
2022/10/21 00:06:34;;;;;;;12.23;8.93;;;19.10;91.00;;;-142.21;100.00;112049.66;5115363;28;20202;-70
2022/10/21 00:09:01;;;;;;;12.37;8.93;;;19.10;90.90;;;-142.21;100.00;112049.66;5114773;28;20465;-70
2022/10/21 00:11:28;;;;;;;11.53;8.70;;;19.10;90.80;;;-142.21;100.00;112049.66;5115661;28;20295;-69
2022/10/21 00:13:55;;;;;;;9.17;8.20;;;19.10;90.90;;;-142.21;100.00;112049.66;5114674;28;20200;-70
2022/10/21 00:16:24;;;;;;;12.53;8.70;;;18.90;91.10;;;-142.21;100.00;112049.66;5115509;28;20219;-70
2022/10/21 00:18:51;;;;;;;10.80;9.13;;;18.90;91.20;;;-142.21;100.00;112049.66;5114186;28;20495;-70
2022/10/21 00:21:22;;;;;;;9.93;8.43;;;18.90;91.20;;;-142.21;100.00;112049.66;5115078;28;20937;-70
2022/10/21 00:23:49;;;;;;;10.17;8.03;;;18.90;91.20;;;-142.21;100.00;112049.66;5092592;28;20958;-70
2022/10/21 00:26:18;;;;;;;10.67;8.43;;;18.90;91.30;;;-142.21;100.00;112049.66;5114615;28;20437;-69
2022/10/21 00:28:45;;;;;;;9.40;8.50;;;18.90;91.40;;;-142.21;100.00;112049.66;5113849;28;20228;-70
2022/10/21 00:31:15;;;;;;;12.30;8.57;;;18.90;91.40;;;-142.21;100.00;112049.66;5114745;28;20296;-70
2022/10/21 00:33:44;;;;;;;12.03;8.93;;;18.80;91.50;;;-142.21;100.00;112049.66;5114691;28;20279;-70
2022/10/21 00:36:14;;;;;;;15.63;8.43;;;18.80;91.60;;;-142.21;100.00;112049.66;5114734;28;20481;-70
2022/10/21 00:38:43;;;;;;;10.17;8.90;;;18.90;91.80;;;-142.21;100.00;112049.66;5114391;28;20580;-69
2022/10/21 00:41:11;;;;;;;12.97;9.27;;;18.80;91.90;;;-142.21;100.00;112049.66;5115023;28;20437;-70
2022/10/21 00:43:56;;;;;;;13.93;9.43;;;18.80;92.00;;;-142.21;100.00;112049.66;5114131;28;20670;-69
2022/10/21 00:46:35;;;;;;;15.03;9.30;;;18.80;92.20;;;-142.21;100.00;112049.66;5114527;28;20198;-69
2022/10/21 00:49:12;;;;;;;12.17;8.07;;;18.80;92.20;;;-142.21;100.00;112049.66;5094522;28;20300;-69
2022/10/21 00:51:39;;;;;;;13.80;8.73;;;18.80;92.30;;;-142.21;100.00;112049.66;5093523;28;20521;-69
2022/10/21 00:54:07;;;;;;;12.93;8.37;;;18.90;92.40;;;-142.21;100.00;112049.66;5094257;28;20200;-69
2022/10/21 00:56:36;;;;;;;10.00;8.03;;;18.80;92.30;;;-142.21;100.00;112049.66;5114086;28;20220;-69
2022/10/21 00:59:06;;;;;;;10.87;8.20;;;18.90;92.40;;;-142.21;100.00;112049.66;5114592;28;20447;-70
2022/10/21 01:01:33;;;;;;;10.07;8.10;;;18.80;92.30;;;-142.21;100.00;112049.66;5114387;28;20286;-70
2022/10/21 01:04:02;;;;;;;13.93;8.17;;;18.80;92.40;;;-142.21;100.00;112049.66;5113623;28;20200;-70
2022/10/21 01:06:32;;;;;;;13.43;7.70;;;18.90;92.40;;;-142.21;100.00;112049.66;5113974;28;20199;-70
2022/10/21 01:09:01;;;;;;;10.47;7.77;;;18.90;92.30;;;-142.21;100.00;112049.66;5113915;28;20534;-70
2022/10/21 01:11:33;;;;;;;10.97;7.90;;;19.00;92.10;;;-142.21;100.00;112049.66;5114455;28;20437;-70
2022/10/21 01:14:24;;;;;;;9.93;7.47;;;19.00;92.10;;;-142.21;100.00;112049.66;5113293;28;20194;-70
2022/10/21 01:17:06;;;;;;;9.27;7.30;;;19.10;91.90;;;-142.21;100.00;112049.66;5093014;28;20285;-70
2022/10/21 01:20:18;;;;;;;13.07;8.07;;;19.10;91.70;;;-142.21;100.00;112049.66;5100760;28;20242;-70
2022/10/21 01:23:24;;;;;;;12.53;8.03;;;19.00;91.90;;;-142.21;100.00;112049.66;5113515;28;20446;-70
2022/10/21 01:26:31;;;;;;;10.03;7.63;;;18.90;92.00;;;-142.21;100.00;112049.66;5113424;28;20279;-70
2022/10/21 01:29:35;;;;;;;8.60;7.70;;;18.90;92.00;;;-142.21;100.00;112049.66;5069892;28;20468;-70
2022/10/21 01:32:19;;;;;;;12.77;7.40;;;18.90;92.40;;;-142.21;100.00;112049.66;5068307;28;20205;-70
2022/10/21 01:34:58;;;;;;;10.70;6.73;;;18.90;91.80;;;-142.21;100.00;112049.66;5112824;28;20279;-70
2022/10/21 01:37:37;;;;;;;9.50;7.50;;;18.90;91.60;;;-142.21;100.00;112049.66;5113907;28;20210;-70
2022/10/21 01:40:14;;;;;;;11.77;7.70;;;18.90;91.50;;;-142.21;100.00;112049.66;5113683;28;20508;-70
2022/10/21 01:42:51;;;;;;;9.80;6.90;;;18.90;91.50;;;-142.21;100.00;112049.66;5113137;28;20184;-70
2022/10/21 01:45:29;;;;;;;9.97;7.43;;;18.90;91.80;;;-142.21;100.00;112049.66;5113305;28;20280;-70
2022/10/21 01:48:05;;;;;;;8.77;6.83;;;18.90;91.50;;;-142.21;100.00;112049.66;5113223;28;20537;-69
2022/10/21 01:50:38;;;;;;;9.33;6.30;;;18.90;91.50;;;-142.21;100.00;112049.66;5060624;28;20286;-70
2022/10/21 01:53:11;;;;;;;8.90;6.37;;;18.80;91.40;;;-142.21;100.00;112049.66;5113520;28;20438;-69
2022/10/21 01:55:40;;;;;;;8.93;6.60;;;18.80;91.20;;;-142.21;100.00;112049.66;5112998;28;20632;-69
2022/10/21 01:58:14;;;;;;;9.40;6.40;;;18.80;91.10;;;-142.21;100.00;112049.66;5113431;28;20230;-69
2022/10/21 02:00:42;;;;;;;10.13;6.40;;;18.80;91.10;;;-142.21;100.00;112049.66;5112603;28;20521;-69
2022/10/21 02:03:16;;;;;;;7.30;6.23;;;18.80;91.00;;;-142.21;100.00;112049.66;5112666;28;20529;-69
2022/10/21 02:05:44;;;;;;;9.83;6.63;;;18.80;91.00;;;-142.21;100.00;112049.66;5112187;28;20545;-70
2022/10/21 02:08:11;;;;;;;8.53;6.67;;;18.80;90.90;;;-142.21;100.00;112049.66;5113130;28;20530;-68
2022/10/21 02:10:45;;;;;;;12.27;6.20;;;18.80;90.90;;;-142.21;100.00;112049.66;5112965;28;20298;-70
2022/10/21 02:13:20;;;;;;;10.87;6.83;;;18.80;90.80;;;-142.21;100.00;112049.66;5113084;28;20205;-70
2022/10/21 02:15:48;;;;;;;8.17;6.57;;;18.80;90.90;;;-142.21;100.00;112049.66;5112069;28;20282;-70
2022/10/21 02:18:24;;;;;;;9.80;6.73;;;18.70;90.80;;;-142.21;100.00;112049.66;5112380;28;20483;-69
2022/10/21 02:20:58;;;;;;;9.47;6.07;;;18.70;90.80;;;-142.21;100.00;112049.66;5112611;28;20432;-70
2022/10/21 02:23:36;;;;;;;7.97;6.43;;;18.70;90.80;;;-142.21;100.00;112049.66;5113260;28;20422;-70
2022/10/21 02:26:03;;;;;;;8.03;6.20;;;18.70;90.80;;;-142.21;100.00;112049.66;5112613;28;20440;-70
2022/10/21 02:28:31;;;;;;;8.47;6.27;;;18.70;90.70;;;-142.21;100.00;112049.66;5113183;28;20625;-69
2022/10/21 02:31:14;;;;;;;10.27;6.60;;;18.70;90.70;;;-142.21;100.00;112049.66;5111994;28;20532;-70
2022/10/21 02:34:00;;;;;;;15.37;7.00;;;18.70;90.70;;;-142.21;100.00;112049.66;5112526;28;20184;-70
2022/10/21 02:36:42;;;;;;;9.97;5.73;;;18.70;90.60;;;-142.21;100.00;112049.66;5112962;28;20503;-70
2022/10/21 02:39:18;;;;;;;8.13;6.17;;;18.70;90.60;;;-142.21;100.00;112049.66;5112792;28;20458;-69
2022/10/21 02:41:48;;;;;;;8.03;5.70;;;18.70;90.60;;;-142.21;100.00;112049.66;5112227;28;20616;-69
2022/10/21 02:44:16;;;;;;;9.37;5.77;;;18.70;90.60;;;-142.21;100.00;112049.66;5112906;28;20490;-70
2022/10/21 02:46:47;;;;;;;6.87;5.47;;;18.70;90.50;;;-142.21;100.00;112049.66;5111999;28;20445;-69
2022/10/21 02:49:15;;;;;;;8.97;6.00;;;18.70;90.50;;;-142.21;100.00;112049.66;5112745;28;20188;-69
2022/10/21 02:51:44;;;;;;;9.40;6.20;;;18.60;90.40;;;-142.21;100.00;112049.66;5113099;28;20199;-69
2022/10/21 02:54:11;;;;;;;7.97;4.90;;;18.70;90.40;;;-142.21;100.00;112049.66;5119326;28;20544;-69
2022/10/21 02:56:38;;;;;;;8.53;4.60;;;18.60;90.30;;;-142.21;100.00;112049.66;5119048;28;20306;-69
2022/10/21 02:59:05;;;;;;;11.37;4.73;;;18.60;90.30;;;-142.21;100.00;112049.66;5118963;28;20536;-69
2022/10/21 03:01:32;;;;;;;5.90;4.80;;;18.60;90.30;;;-142.21;100.00;112049.66;5118888;28;20937;-69
2022/10/21 03:03:59;;;;;;;4.73;4.33;;;18.60;90.30;;;-142.21;100.00;112049.66;5118601;28;20441;-69
2022/10/21 03:06:27;;;;;;;9.90;5.23;;;18.50;90.60;;;-142.21;100.00;112049.66;5119390;28;20839;-69
2022/10/21 03:08:55;;;;;;;5.60;4.17;;;18.50;90.30;;;-142.21;100.00;112049.66;5118825;28;20459;-69
2022/10/21 03:11:22;;;;;;;8.63;4.97;;;18.50;90.30;;;-142.21;100.00;112049.66;5119193;28;20453;-69
2022/10/21 03:13:49;;;;;;;6.93;5.00;;;18.50;90.30;;;-142.21;100.00;112049.66;5118523;28;20532;-70
2022/10/21 03:16:16;;;;;;;10.13;4.77;;;18.50;90.30;;;-142.21;100.00;112049.66;5118487;28;20463;-69
2022/10/21 03:18:43;;;;;;;6.17;4.70;;;18.50;90.20;;;-142.21;100.00;112049.66;5118806;28;20473;-69
2022/10/21 03:21:10;;;;;;;6.73;4.63;;;18.50;90.20;;;-142.21;100.00;112049.66;5118918;28;20445;-69
2022/10/21 03:23:41;;;;;;;6.20;5.10;;;18.50;90.20;;;-142.21;100.00;112049.66;5118939;28;20532;-69
2022/10/21 03:26:08;;;;;;;6.67;5.40;;;18.50;90.20;;;-142.21;100.00;112049.66;5118456;28;20433;-69
2022/10/21 03:28:35;;;;;;;9.23;6.03;;;18.50;90.30;;;-142.21;100.00;112049.66;5118106;28;21028;-69
2022/10/21 03:31:02;;;;;;;6.47;5.13;;;18.50;90.60;;;-142.21;100.00;112049.66;5117675;28;20238;-69
2022/10/21 03:33:29;;;;;;;7.10;6.10;;;18.50;90.40;;;-142.21;100.00;112049.66;5119158;28;20524;-69
2022/10/21 03:35:56;;;;;;;6.87;5.73;;;18.40;90.40;;;-142.21;100.00;112049.66;5118139;28;20544;-69
2022/10/21 03:38:23;;;;;;;7.67;6.20;;;18.40;90.40;;;-142.21;100.00;112049.66;5118435;28;20477;-70
2022/10/21 03:40:52;;;;;;;8.13;6.37;;;18.40;90.40;;;-142.21;100.00;112049.66;5118026;28;20536;-70
2022/10/21 03:43:19;;;;;;;10.17;6.60;;;18.50;90.50;;;-142.21;100.00;112049.66;5118561;28;20210;-70
2022/10/21 03:45:47;;;;;;;7.33;6.13;;;18.50;90.50;;;-142.21;100.00;112049.66;5117685;28;20969;-69
2022/10/21 03:48:15;;;;;;;6.60;5.63;;;18.50;90.50;;;-142.21;100.00;112049.66;5119299;28;20769;-69
2022/10/21 03:50:42;;;;;;;8.43;6.13;;;18.40;90.40;;;-142.21;100.00;112049.66;5118787;28;20473;-69
2022/10/21 03:53:09;;;;;;;7.00;5.57;;;18.40;90.50;;;-142.21;100.00;112049.66;5118330;28;20199;-69
2022/10/21 03:55:36;;;;;;;6.00;5.20;;;18.50;90.50;;;-142.21;100.00;112049.66;5118763;28;20477;-69
2022/10/21 03:58:05;;;;;;;7.07;5.67;;;18.50;90.50;;;-142.21;100.00;112049.66;5117985;28;20487;-69
2022/10/21 04:00:32;;;;;;;8.80;5.30;;;18.50;90.60;;;-142.21;100.00;112049.66;5118498;28;20524;-70
2022/10/21 04:02:59;;;;;;;8.50;5.67;;;18.50;90.50;;;-142.21;100.00;112049.66;5118077;28;20929;-69
2022/10/21 04:05:26;;;;;;;9.40;6.27;;;18.50;90.60;;;-142.21;100.00;112049.66;5114397;28;20196;-70
2022/10/21 04:07:53;;;;;;;7.70;5.87;;;18.50;90.60;;;-142.21;100.00;112049.66;5114924;28;20767;-70
2022/10/21 04:10:21;;;;;;;9.37;5.97;;;18.50;90.70;;;-142.21;100.00;112049.66;5115342;28;20196;-70
2022/10/21 04:12:48;;;;;;;7.17;6.47;;;18.50;90.60;;;-142.21;100.00;112049.66;5114684;28;20445;-70
2022/10/21 04:15:17;;;;;;;6.90;6.20;;;18.40;90.60;;;-142.21;100.00;112049.66;5115017;28;20239;-69
2022/10/21 04:17:46;;;;;;;7.03;6.33;;;18.30;90.80;;;-142.21;100.00;112049.66;5114961;28;21056;-70
2022/10/21 04:20:14;;;;;;;8.67;6.50;;;18.30;90.90;;;-142.21;100.00;112049.66;5115218;28;20480;-69
2022/10/21 04:22:41;;;;;;;8.50;6.97;;;18.30;90.90;;;-142.21;100.00;112049.66;5114984;28;20445;-69
2022/10/21 04:25:09;;;;;;;9.70;6.30;;;18.30;91.00;;;-142.21;100.00;112049.66;5114541;28;20456;-69
2022/10/21 04:27:36;;;;;;;7.83;6.33;;;18.30;91.00;;;-142.21;100.00;112049.66;5114727;28;20918;-69
2022/10/21 04:30:05;;;;;;;8.60;6.90;;;18.40;91.10;;;-142.21;100.00;112049.66;5114339;28;20461;-70
2022/10/21 04:32:35;;;;;;;8.83;6.60;;;18.30;91.00;;;-142.21;100.00;112049.66;5115134;28;20441;-70
2022/10/21 04:35:02;;;;;;;9.13;6.10;;;18.40;91.00;;;-142.21;100.00;112049.66;5113970;28;20525;-68
2022/10/21 04:37:29;;;;;;;8.00;5.93;;;18.40;91.00;;;-142.21;100.00;112049.66;5114655;28;20572;-69
2022/10/21 04:39:57;;;;;;;7.80;6.20;;;18.40;91.00;;;-142.21;100.00;112049.66;5113959;28;20196;-70
2022/10/21 04:42:24;;;;;;;9.53;6.60;;;18.40;91.00;;;-142.21;100.00;112049.66;5114875;28;20437;-70
2022/10/21 04:44:51;;;;;;;9.90;5.77;;;18.50;90.90;;;-142.21;100.00;112049.66;5114005;28;20446;-70
2022/10/21 04:47:20;;;;;;;11.07;6.10;;;18.50;90.90;;;-142.21;100.00;112049.66;5114957;28;20437;-70
2022/10/21 04:49:49;;;;;;;7.00;5.90;;;18.50;90.90;;;-142.21;100.00;112049.66;5114276;28;20478;-70
2022/10/21 04:52:16;;;;;;;9.30;5.60;;;18.50;90.90;;;-142.21;100.00;112049.66;5114728;28;20464;-70
2022/10/21 04:54:43;;;;;;;9.20;6.07;;;18.50;90.80;;;-142.21;100.00;112049.66;5114446;28;20208;-70
2022/10/21 04:57:12;;;;;;;7.90;6.57;;;18.50;90.70;;;-142.21;100.00;112049.66;5113940;28;20273;-70
2022/10/21 04:59:39;;;;;;;9.03;5.87;;;18.30;91.00;;;-142.21;100.00;112049.66;5114780;28;20536;-69
2022/10/21 05:02:06;;;;;;;7.53;6.20;;;18.10;91.20;;;-142.21;100.00;112049.66;5114012;28;20256;-69
2022/10/21 05:04:33;;;;;;;8.60;6.17;;;18.10;91.70;;;-142.21;100.00;112049.66;5114446;28;20541;-69
2022/10/21 05:07:02;;;;;;;8.60;6.40;;;18.00;91.40;;;-142.21;100.00;112049.66;5114119;28;20532;-69
2022/10/21 05:09:29;;;;;;;7.20;5.63;;;18.00;91.50;;;-142.21;100.00;112049.66;5114342;28;20918;-69
2022/10/21 05:11:56;;;;;;;8.07;6.80;;;17.90;91.70;;;-142.21;100.00;112049.66;5113273;28;20445;-70
2022/10/21 05:14:23;;;;;;;6.53;5.77;;;17.90;91.70;;;-142.21;100.00;112049.66;5114165;28;20200;-70
2022/10/21 05:16:50;;;;;;;8.07;6.00;;;18.00;91.70;;;-142.21;100.00;112049.66;5113028;28;20444;-70
2022/10/21 05:19:18;;;;;;;7.27;5.53;;;18.10;91.60;;;-142.21;100.00;112049.66;5113514;28;20564;-68
2022/10/21 05:21:46;;;;;;;7.67;6.00;;;18.10;91.60;;;-142.21;100.00;112049.66;5113367;28;20450;-70
2022/10/21 05:24:16;;;;;;;5.73;5.07;;;18.10;91.40;;;-142.21;100.00;112049.66;5113122;28;20457;-69
2022/10/21 05:26:43;;;;;;;5.87;5.17;;;18.20;91.40;;;-142.21;100.00;112049.66;5113696;28;20452;-69
2022/10/21 05:29:10;;;;;;;6.07;5.47;;;18.20;91.40;;;-142.21;100.00;112049.66;5112948;28;20549;-70
2022/10/21 05:31:37;;;;;;;7.20;5.67;;;18.20;91.40;;;-142.21;100.00;112049.66;5113404;28;20954;-69
2022/10/21 05:34:04;;;;;;;10.77;6.07;;;18.10;91.40;;;-142.21;100.00;112049.66;5113101;28;20533;-70
2022/10/21 05:36:31;;;;;;;10.20;6.07;;;18.10;91.50;;;-142.21;100.00;112049.66;5113528;28;20580;-69
2022/10/21 05:38:59;;;;;;;8.13;6.80;;;18.20;91.50;;;-142.21;100.00;112049.66;5113117;28;20473;-70
2022/10/21 05:41:27;;;;;;;8.00;7.13;;;18.10;91.60;;;-142.21;100.00;112049.66;5113539;28;20532;-69
2022/10/21 05:43:55;;;;;;;11.23;6.87;;;18.20;91.70;;;-142.21;100.00;112049.66;5112966;28;20437;-70
2022/10/21 05:46:22;;;;;;;11.60;7.20;;;18.10;92.00;;;-142.21;100.00;112049.66;5113320;28;20446;-70
2022/10/21 05:48:49;;;;;;;8.07;7.27;;;18.10;91.60;;;-142.21;100.00;112049.66;5113550;28;20444;-68
2022/10/21 05:51:17;;;;;;;12.30;8.10;;;18.10;91.80;;;-142.21;100.00;112049.66;5112249;28;20499;-70
2022/10/21 05:53:44;;;;;;;14.07;8.40;;;18.10;91.80;;;-142.21;100.00;112049.66;5113208;28;20449;-70
2022/10/21 05:56:11;;;;;;;15.63;8.37;;;18.10;91.90;;;-142.21;100.00;112049.66;5112806;28;20460;-70
2022/10/21 05:58:39;;;;;;;11.20;7.47;;;18.10;92.00;;;-142.21;100.00;112049.66;5113440;28;20484;-70
2022/10/21 06:01:06;;;;;;;10.63;7.67;;;18.00;92.10;;;-142.21;100.00;112049.66;5112345;28;20490;-70
2022/10/21 06:03:34;;;;;;;8.77;7.83;;;18.10;92.00;;;-142.21;100.00;112049.66;5113487;28;20257;-70
2022/10/21 06:06:05;;;;;;;10.27;7.53;;;18.20;92.00;;;-142.21;100.00;112049.66;5112250;28;20507;-70
2022/10/21 06:08:34;;;;;;;8.83;7.07;;;18.20;91.80;;;-142.21;100.00;112049.66;5113153;28;20445;-70
2022/10/21 06:11:02;;;;;;;11.60;7.83;;;18.30;91.80;;;-142.21;100.00;112049.66;5111947;28;20517;-70
2022/10/21 06:13:30;;;;;;;11.57;7.20;;;18.30;91.80;;;-142.21;100.00;112049.66;5113461;28;20469;-69
2022/10/21 06:15:59;;;;;;;12.00;7.23;;;18.30;91.90;;;-142.21;100.00;112049.66;5112796;28;20223;-70
2022/10/21 06:18:27;;;;;;;9.03;6.83;;;18.30;91.80;;;-142.21;100.00;112049.66;5112749;28;20499;-69
2022/10/21 06:20:57;;;;;;;9.07;7.43;;;18.30;91.80;;;-142.21;100.00;112049.66;5111972;28;20438;-69
2022/10/21 06:23:25;;;;;;;9.10;7.70;;;18.30;91.80;;;-142.21;100.00;112049.66;5112540;28;20446;-69
2022/10/21 06:25:57;;;;;;;9.30;7.00;;;18.40;91.90;;;-142.21;100.00;112049.66;5058437;28;20921;-70
2022/10/21 06:28:26;;;;;;;9.30;7.50;;;18.40;91.80;;;-142.21;100.00;112049.66;5111631;28;20434;-69
2022/10/21 06:30:53;;;;;;;8.60;6.67;;;18.40;91.80;;;-142.21;100.00;112049.66;5112772;28;20445;-69
2022/10/21 06:33:22;;;;;;;10.83;7.40;;;18.50;91.70;;;-142.21;100.00;112049.66;5112541;28;20521;-70
2022/10/21 06:35:49;;;;;;;9.20;7.57;;;18.50;91.70;;;-142.21;100.00;112049.66;5112665;28;20303;-70
2022/10/21 06:38:18;;;;;;;11.83;7.53;;;18.40;91.70;;;-142.21;100.00;112049.66;5093912;28;20870;-69
2022/10/21 06:40:47;;;;;;;8.80;6.80;;;18.50;91.70;;;-142.21;100.00;112049.66;5112846;28;20788;-70
2022/10/21 06:43:15;;;;;;;11.27;7.43;;;18.50;91.70;;;-142.21;100.00;112049.66;5111999;28;20457;-69
2022/10/21 06:45:42;;;;;;;13.33;7.97;;;18.50;91.70;;;-142.21;100.00;112049.66;5112426;28;20521;-69
2022/10/21 06:48:09;;;;;;;8.33;7.00;;;18.50;91.80;;;-142.21;100.00;112049.66;5111504;28;20449;-70
2022/10/21 06:50:38;;;;;;;10.20;7.73;;;18.50;91.80;;;-142.21;100.00;112049.66;5111114;28;20941;-70
2022/10/21 06:53:06;;;;;;;10.73;6.73;;;18.40;91.80;;;-142.21;100.00;112049.66;5111728;28;20536;-70
2022/10/21 06:55:33;;;;;;;8.73;7.00;;;18.40;91.80;;;-142.21;100.00;112049.66;5112543;28;20540;-70
2022/10/21 06:58:00;;;;;;;11.97;7.80;;;18.50;92.20;;;-142.21;100.00;112049.66;5111202;28;20572;-70
2022/10/21 07:00:31;;;;;;;9.60;6.90;;;18.50;91.80;;;-142.21;100.00;112049.66;5112544;28;20498;-70
2022/10/21 07:02:58;;;;;;;9.13;7.37;;;18.50;91.80;;;-142.21;100.00;112049.66;5111580;28;20437;-70
2022/10/21 07:05:25;;;;;;;7.77;6.93;;;18.50;91.80;;;-142.21;100.00;112049.66;5112358;28;20837;-70
2022/10/21 07:07:53;;;;;;;8.73;7.67;;;18.60;91.70;;;-142.21;100.00;112049.66;5111895;28;20476;-70
2022/10/21 07:10:21;;;;;;;10.10;7.27;;;18.60;91.70;;;-142.21;100.00;112049.66;5112495;28;20286;-69
2022/10/21 07:12:48;;;;;;;7.97;7.17;;;18.60;91.70;;;-142.21;100.00;112049.66;5112553;28;20464;-70
2022/10/21 07:15:15;;;;;;;9.73;7.40;;;18.60;91.60;;;-142.21;100.00;112049.66;5111745;28;21091;-70
2022/10/21 07:17:42;;;;;;;9.23;7.43;;;18.70;91.60;;;-142.21;100.00;112049.66;5111705;28;20531;-69
2022/10/21 07:20:10;;;;;;;9.50;7.00;;;18.70;91.60;;;-142.21;100.00;112049.66;5112037;28;20755;-70
2022/10/21 07:22:38;;;;;;;9.63;7.00;;;18.70;91.60;;;-142.21;100.00;112049.66;5112326;28;20441;-69
2022/10/21 07:25:08;;;;;;;11.37;7.57;;;18.70;91.60;;;-142.21;100.00;112049.66;5111931;28;20441;-70
2022/10/21 07:27:35;;;;;;;10.67;6.90;;;18.70;91.60;;;-142.21;100.00;112049.66;5112464;28;20199;-69
2022/10/21 07:30:02;;;;;;;11.03;8.00;;;18.70;91.60;;;-142.21;100.00;112049.66;5111489;28;20276;-70
2022/10/21 07:32:29;;;;;;;19.30;15.37;;;18.70;91.50;;;-142.21;100.00;112049.66;5112264;28;20445;-69
2022/10/21 07:34:56;;;;;;;19.70;13.23;;;18.70;91.50;;;-142.21;100.00;112049.66;5112429;28;20787;-70
2022/10/21 07:37:24;;;;;;;15.70;12.93;;;18.70;91.60;;;-142.21;100.00;112049.66;5111688;28;20210;-69
2022/10/21 07:39:51;;;;;;;14.27;10.70;;;18.80;91.60;;;-142.21;100.00;112049.66;5115514;28;20203;-70
2022/10/21 07:42:20;;;;;;;9.87;8.80;;;18.80;91.60;;;-142.21;100.00;112049.66;5115768;28;20294;-69
2022/10/21 07:44:51;;;;;;;9.53;7.07;;;18.80;91.60;;;-142.21;100.00;112049.66;5116099;28;20199;-69
2022/10/21 07:47:19;;;;;;;10.83;7.50;;;18.80;91.60;;;-142.21;100.00;112049.66;5115536;28;20196;-69
2022/10/21 07:49:46;;;;;;;11.23;7.70;;;18.70;91.80;;;-142.21;100.00;112049.66;5115891;28;20204;-70
2022/10/21 07:52:14;;;;;;;13.17;7.80;;;18.70;91.90;;;-142.21;100.00;112049.66;5115435;28;20199;-69
2022/10/21 07:54:41;;;;;;;9.37;7.07;;;18.60;92.00;;;-142.21;100.00;112049.66;5116102;28;20445;-69
2022/10/21 07:57:09;;;;;;;7.70;6.37;;;18.70;92.10;;;-142.21;100.00;112049.66;5115464;28;20226;-70
2022/10/21 07:59:38;;;;;;;10.47;7.83;;;18.70;92.00;;;-142.21;100.00;112049.66;5115329;28;20485;-70
2022/10/21 08:02:05;;;;;;;8.87;7.50;;;18.70;91.90;;;-142.21;100.00;112049.66;5114967;28;20200;-70
2022/10/21 08:04:32;;;;;;;7.87;7.07;;;18.80;92.00;;;-142.21;100.00;112049.66;5115451;28;20235;-70
2022/10/21 08:07:01;;;;;;;7.53;6.43;;;18.80;91.90;;;-142.21;100.00;112049.66;5114955;28;20487;-70
2022/10/21 08:09:29;;;;;;;8.83;7.37;;;18.80;91.90;;;-142.21;100.00;112049.66;5115707;28;20438;-70
2022/10/21 08:11:56;;;;;;;12.70;7.37;;;18.80;91.90;;;-142.21;100.00;112049.66;5115615;28;20562;-69
2022/10/21 08:14:24;;;;;;;9.53;7.47;;;18.80;91.90;;;-142.21;100.00;112049.66;5115691;28;20441;-71
2022/10/21 08:16:54;;;;;;;9.60;7.63;;;18.80;91.90;;;-142.21;100.00;112049.66;5115046;28;20450;-69
2022/10/21 08:19:28;;;;;;;10.37;6.97;;;18.90;91.90;;;-142.21;100.00;112049.66;5114409;28;20493;-69
2022/10/21 08:21:57;;;;;;;9.63;7.30;;;18.90;91.90;;;-142.21;100.00;112049.66;5115141;28;20433;-70
2022/10/21 08:24:25;;;;;;;9.37;7.50;;;18.90;91.90;;;-142.21;100.00;112049.66;5115088;28;20223;-70
2022/10/21 08:26:52;;;;;;;11.00;7.00;;;18.90;91.90;;;-142.21;100.00;112049.66;5115061;28;20774;-70
2022/10/21 08:29:20;;;;;;;10.13;7.67;;;18.90;91.90;;;-142.21;100.00;112049.66;5114628;28;20277;-71
2022/10/21 08:31:48;;;;;;;10.30;7.47;;;19.00;91.90;;;-142.21;100.00;112049.66;5115165;28;20253;-70
2022/10/21 08:34:17;;;;;;;10.13;7.10;;;19.00;91.90;;;-142.21;100.00;112049.66;5114434;28;20204;-70
2022/10/21 08:36:45;;;;;;;11.43;9.10;;;19.00;91.90;;;-142.21;100.00;112049.66;5114878;28;20219;-70
2022/10/21 08:39:12;;;;;;;11.27;8.80;;;19.00;91.80;;;-142.21;100.00;112049.66;5114116;28;20227;-71
2022/10/21 08:42:11;;;;;;;9.43;8.17;;;18.80;92.10;;;-142.21;100.00;112049.66;5115106;28;20498;-71
2022/10/21 08:44:52;;;;;;;10.17;7.83;;;18.80;92.40;;;-142.21;100.00;112049.66;5115095;28;20513;-69
2022/10/21 08:47:33;;;;;;;11.60;8.23;;;18.80;92.30;;;-142.21;100.00;112049.66;5114376;28;20207;-70
2022/10/21 08:50:11;;;;;;;11.77;8.30;;;18.80;92.40;;;-142.21;100.00;112049.66;5113660;28;20425;-70
2022/10/21 08:52:43;;;;;;;10.70;8.60;;;18.80;92.50;;;-142.21;100.00;112049.66;5115117;28;20211;-70
2022/10/21 08:55:20;;;;;;;9.83;8.13;;;18.80;92.40;;;-142.21;100.00;112049.66;5114213;28;20517;-70
2022/10/21 08:57:49;;;;;;;9.10;7.70;;;18.80;92.60;;;-142.21;100.00;112049.66;5114772;28;20875;-69
2022/10/21 09:00:20;;;;;;;10.73;7.50;;;18.80;92.60;;;-142.21;100.00;112049.66;5113710;28;20868;-69
2022/10/21 09:03:11;;;;;;;10.87;8.47;;;18.70;92.70;;;-142.21;100.00;112049.66;5114335;28;20538;-69
2022/10/21 09:06:15;;;;;;;9.43;8.43;;;18.70;93.00;;;-142.21;100.00;112049.66;5114142;28;20485;-70
2022/10/21 09:09:09;;;;;;;10.93;8.13;;;18.70;93.10;;;-142.21;100.00;112049.66;5114528;28;20213;-70
2022/10/21 09:12:00;;;;;;;11.53;7.07;;;18.70;93.20;;;-142.21;100.00;112049.66;5114480;28;20234;-70
2022/10/21 09:15:06;;;;;;;9.73;6.77;;;18.70;93.30;;;-142.21;100.00;112049.66;5096041;28;20429;-70
2022/10/21 09:18:00;;;;;;;9.77;6.53;;;18.80;93.40;;;-142.21;100.00;112049.66;5113720;28;20422;-70
2022/10/21 09:20:48;;;;;;;10.20;5.80;;;18.80;93.40;;;-142.21;100.00;112049.66;5114224;28;20192;-70
2022/10/21 09:23:52;;;;;;;8.43;5.40;;;18.90;93.50;;;-142.21;100.00;112049.66;5113510;28;20762;-70
2022/10/21 09:26:35;;;;;;;11.27;5.90;;;18.90;93.60;;;-142.21;100.00;112049.66;5113225;28;20429;-70
2022/10/21 09:29:25;;;;;;;8.90;6.27;;;18.90;93.60;;;-142.21;100.00;112049.66;5113075;28;20467;-69
2022/10/21 09:31:52;;;;;;;8.33;5.43;;;19.00;93.70;;;-142.21;100.00;112049.66;5113906;28;20520;-71
2022/10/21 09:34:39;;;;;;;8.20;5.27;;;19.10;93.50;;;-142.21;100.00;112049.66;5113338;28;20284;-69
2022/10/21 09:37:18;;;;;;;7.07;4.97;;;19.10;93.50;;;-142.21;100.00;112049.66;5113246;28;20536;-70
2022/10/21 09:39:56;;;;;;;6.70;4.80;;;19.10;93.50;;;-142.21;100.00;112049.66;5113728;28;20821;-69
2022/10/21 09:42:23;;;;;;;10.33;5.03;;;19.20;93.50;;;-142.21;100.00;112049.66;5113174;28;20228;-69
2022/10/21 09:44:51;;;;;;;7.07;4.40;;;19.10;93.50;;;-142.21;100.00;112049.66;5113932;28;20207;-69
2022/10/21 09:47:22;;;;;;;6.10;3.87;;;19.20;93.50;;;-142.21;100.00;112049.66;5113006;28;20441;-69
2022/10/21 09:49:56;;;;;;;6.67;4.30;;;19.20;93.60;;;-142.21;100.00;112049.66;5113616;28;20275;-71
2022/10/21 09:52:34;;;;;;;5.87;3.80;;;19.20;93.60;;;-142.21;100.00;112049.66;5113308;28;20284;-69
2022/10/21 09:55:03;;;;;;;6.17;3.60;;;19.20;93.50;;;-142.21;100.00;112049.66;5113801;28;20571;-69
2022/10/21 09:57:48;;;;;;;4.53;3.10;;;19.20;93.30;;;-142.21;100.00;112049.66;5113720;28;20290;-71
2022/10/21 10:00:15;;;;;;;9.07;4.20;;;19.30;93.30;;;-142.21;100.00;112049.66;5112583;28;20630;-70
2022/10/21 10:02:46;;;;;;;6.17;3.10;;;19.30;93.50;;;-142.21;100.00;112049.66;5112596;28;20200;-70
2022/10/21 10:05:37;;;;;;;5.60;3.10;;;19.30;93.50;;;-142.21;100.00;112049.66;5112551;28;20218;-70
2022/10/21 10:08:37;;;;;;;4.47;3.10;;;19.30;93.60;;;-142.21;100.00;112049.66;5112849;28;20207;-70